sensor_id;sensor_type;location;lat;lon;timestamp;pressure;altitude;pressure_sealevel;temperature;humidity
54882;BME280;40775;51.448;4.742;2022-08-21T00:00:24;101577.56;;;26.39;61.28
54882;BME280;40775;51.448;4.742;2022-08-21T00:03:00;101580.25;;;26.39;61.12
54882;BME280;40775;51.448;4.742;2022-08-21T00:05:30;101577.56;;;26.39;61.31
54882;BME280;40775;51.448;4.742;2022-08-21T00:07:58;101573.19;;;26.36;61.07
54882;BME280;40775;51.448;4.742;2022-08-21T00:10:26;101573.13;;;26.38;61.09
54882;BME280;40775;51.448;4.742;2022-08-21T00:12:53;101563.28;;;26.37;61.17
54882;BME280;40775;51.448;4.742;2022-08-21T00:15:26;101573.19;;;26.36;61.24
54882;BME280;40775;51.448;4.742;2022-08-21T00:17:55;101562.47;;;26.35;61.13
54882;BME280;40775;51.448;4.742;2022-08-21T00:20:23;101564.28;;;26.34;61.17
54882;BME280;40775;51.448;4.742;2022-08-21T00:22:51;101563.38;;;26.34;61.17
54882;BME280;40775;51.448;4.742;2022-08-21T00:25:19;101562.47;;;26.33;61.13
54882;BME280;40775;51.448;4.742;2022-08-21T00:27:52;101562.47;;;26.35;61.28
54882;BME280;40775;51.448;4.742;2022-08-21T00:30:21;101559.75;;;26.35;61.04
54882;BME280;40775;51.448;4.742;2022-08-21T00:32:50;101552.63;;;26.34;60.98
54882;BME280;40775;51.448;4.742;2022-08-21T00:35:22;101555.31;;;26.34;61.08
54882;BME280;40775;51.448;4.742;2022-08-21T00:37:50;101552.63;;;26.34;61.11
54882;BME280;40775;51.448;4.742;2022-08-21T00:40:25;101556.22;;;26.33;61.12
54882;BME280;40775;51.448;4.742;2022-08-21T00:42:52;101558.91;;;26.33;61.21
54882;BME280;40775;51.448;4.742;2022-08-21T00:45:21;101556.22;;;26.33;61.30
54882;BME280;40775;51.448;4.742;2022-08-21T00:47:51;101559.84;;;26.32;61.20
54882;BME280;40775;51.448;4.742;2022-08-21T00:50:18;101549.06;;;26.32;61.04
54882;BME280;40775;51.448;4.742;2022-08-21T00:52:51;101557.19;;;26.30;61.12
54882;BME280;40775;51.448;4.742;2022-08-21T00:55:22;101547.38;;;26.28;61.24
54882;BME280;40775;51.448;4.742;2022-08-21T00:57:56;101554.53;;;26.29;61.25
54882;BME280;40775;51.448;4.742;2022-08-21T01:00:30;101556.31;;;26.30;61.06
54882;BME280;40775;51.448;4.742;2022-08-21T01:03:00;101551.81;;;26.30;61.14
54882;BME280;40775;51.448;4.742;2022-08-21T01:05:33;101559.00;;;26.30;61.18
54882;BME280;40775;51.448;4.742;2022-08-21T01:08:00;101561.69;;;26.30;61.24
54882;BME280;40775;51.448;4.742;2022-08-21T01:10:28;101557.16;;;26.32;61.31
54882;BME280;40775;51.448;4.742;2022-08-21T01:12:56;101561.72;;;26.28;61.08
54882;BME280;40775;51.448;4.742;2022-08-21T01:15:29;101553.66;;;26.28;61.32
54882;BME280;40775;51.448;4.742;2022-08-21T01:17:57;101559.00;;;26.30;61.10
54882;BME280;40775;51.448;4.742;2022-08-21T01:20:25;101550.06;;;26.28;61.19
54882;BME280;40775;51.448;4.742;2022-08-21T01:23:00;101549.13;;;26.29;61.29
54882;BME280;40775;51.448;4.742;2022-08-21T01:25:28;101562.59;;;26.29;61.24
54882;BME280;40775;51.448;4.742;2022-08-21T01:27:55;101553.69;;;26.27;61.05
54882;BME280;40775;51.448;4.742;2022-08-21T01:30:27;101551.88;;;26.27;61.10
54882;BME280;40775;51.448;4.742;2022-08-21T01:32:56;101547.44;;;26.26;61.26
54882;BME280;40775;51.448;4.742;2022-08-21T01:35:24;101555.56;;;26.25;61.25
54882;BME280;40775;51.448;4.742;2022-08-21T01:37:51;101552.88;;;26.25;61.28
54882;BME280;40775;51.448;4.742;2022-08-21T01:40:18;101552.88;;;26.25;61.12
54882;BME280;40775;51.448;4.742;2022-08-21T01:42:46;101548.41;;;26.24;61.12
54882;BME280;40775;51.448;4.742;2022-08-21T01:45:15;101550.22;;;26.23;61.16
54882;BME280;40775;51.448;4.742;2022-08-21T01:47:44;101547.53;;;26.23;61.15
54882;BME280;40775;51.448;4.742;2022-08-21T01:50:15;101554.75;;;26.23;61.44
54882;BME280;40775;51.448;4.742;2022-08-21T01:52:42;101555.72;;;26.20;61.15
54882;BME280;40775;51.448;4.742;2022-08-21T01:55:14;101552.03;;;26.23;61.13
54882;BME280;40775;51.448;4.742;2022-08-21T01:57:43;101547.59;;;26.22;61.48
54882;BME280;40775;51.448;4.742;2022-08-21T02:00:15;101554.84;;;26.19;61.09
54882;BME280;40775;51.448;4.742;2022-08-21T02:02:43;101549.47;;;26.19;61.25
54882;BME280;40775;51.448;4.742;2022-08-21T02:05:11;101536.00;;;26.19;61.23
54882;BME280;40775;51.448;4.742;2022-08-21T02:07:46;101545.00;;;26.18;61.18
54882;BME280;40775;51.448;4.742;2022-08-21T02:10:21;101540.56;;;26.17;61.19
54882;BME280;40775;51.448;4.742;2022-08-21T02:12:49;101538.69;;;26.19;61.35
54882;BME280;40775;51.448;4.742;2022-08-21T02:15:16;101545.00;;;26.18;61.30
54882;BME280;40775;51.448;4.742;2022-08-21T02:17:49;101532.47;;;26.17;61.29
54882;BME280;40775;51.448;4.742;2022-08-21T02:22:52;101535.28;;;26.14;61.36
54882;BME280;40775;51.448;4.742;2022-08-21T02:25:22;101535.28;;;26.14;61.28
54882;BME280;40775;51.448;4.742;2022-08-21T02:27:50;101533.47;;;26.15;61.40
54882;BME280;40775;51.448;4.742;2022-08-21T02:30:27;101531.72;;;26.14;61.28
54882;BME280;40775;51.448;4.742;2022-08-21T02:32:55;101519.25;;;26.11;61.36
54882;BME280;40775;51.448;4.742;2022-08-21T02:35:24;101518.31;;;26.12;61.20
54882;BME280;40775;51.448;4.742;2022-08-21T02:37:59;101520.13;;;26.12;61.20
54882;BME280;40775;51.448;4.742;2022-08-21T02:40:31;101520.06;;;26.13;61.24
54882;BME280;40775;51.448;4.742;2022-08-21T02:43:00;101530.84;;;26.13;61.27
54882;BME280;40775;51.448;4.742;2022-08-21T02:45:28;101525.50;;;26.12;61.32
54882;BME280;40775;51.448;4.742;2022-08-21T02:48:08;101526.44;;;26.11;61.32
54882;BME280;40775;51.448;4.742;2022-08-21T02:50:42;101530.06;;;26.10;61.32
54882;BME280;40775;51.448;4.742;2022-08-21T02:53:13;101532.75;;;26.10;61.31
54882;BME280;40775;51.448;4.742;2022-08-21T02:55:45;101535.44;;;26.10;61.21
54882;BME280;40775;51.448;4.742;2022-08-21T02:58:23;101531.00;;;26.09;61.40
54882;BME280;40775;51.448;4.742;2022-08-21T03:00:50;101531.00;;;26.09;61.42
54882;BME280;40775;51.448;4.742;2022-08-21T03:03:19;101537.25;;;26.09;61.34
54882;BME280;40775;51.448;4.742;2022-08-21T03:05:47;101538.13;;;26.10;61.51
54882;BME280;40775;51.448;4.742;2022-08-21T03:08:15;101522.97;;;26.07;61.21
54882;BME280;40775;51.448;4.742;2022-08-21T03:10:47;101521.16;;;26.08;61.25
54882;BME280;40775;51.448;4.742;2022-08-21T03:13:15;101520.28;;;26.07;61.39
54882;BME280;40775;51.448;4.742;2022-08-21T03:15:43;101526.59;;;26.06;61.38
54882;BME280;40775;51.448;4.742;2022-08-21T03:18:11;101527.47;;;26.07;61.52
54882;BME280;40775;51.448;4.742;2022-08-21T03:20:41;101521.22;;;26.06;61.06
54882;BME280;40775;51.448;4.742;2022-08-21T03:23:09;101515.81;;;26.06;61.21
54882;BME280;40775;51.448;4.742;2022-08-21T03:25:40;101511.38;;;26.05;61.33
54882;BME280;40775;51.448;4.742;2022-08-21T03:28:13;101514.13;;;26.04;61.24
54882;BME280;40775;51.448;4.742;2022-08-21T03:30:45;101512.38;;;26.03;61.38
54882;BME280;40775;51.448;4.742;2022-08-21T03:33:13;101509.69;;;26.01;61.42
54882;BME280;40775;51.448;4.742;2022-08-21T03:35:49;101496.22;;;26.03;61.40
54882;BME280;40775;51.448;4.742;2022-08-21T03:38:18;101491.72;;;26.02;61.40
54882;BME280;40775;51.448;4.742;2022-08-21T03:40:52;101498.94;;;26.01;61.25
54882;BME280;40775;51.448;4.742;2022-08-21T03:43:20;101495.34;;;26.02;61.30
54882;BME280;40775;51.448;4.742;2022-08-21T03:45:47;101496.25;;;26.01;61.29
54882;BME280;40775;51.448;4.742;2022-08-21T03:48:14;101503.41;;;26.02;61.30
54882;BME280;40775;51.448;4.742;2022-08-21T03:50:43;101492.66;;;26.01;61.40
54882;BME280;40775;51.448;4.742;2022-08-21T03:53:12;101497.16;;;26.00;61.16
54882;BME280;40775;51.448;4.742;2022-08-21T03:55:48;101490.03;;;25.99;61.16
54882;BME280;40775;51.448;4.742;2022-08-21T03:58:19;101494.59;;;25.97;61.45
54882;BME280;40775;51.448;4.742;2022-08-21T04:00:49;101502.59;;;25.99;61.06
54882;BME280;40775;51.448;4.742;2022-08-21T04:03:18;101499.03;;;25.98;61.35
54882;BME280;40775;51.448;4.742;2022-08-21T04:05:45;101501.72;;;25.98;61.26
54882;BME280;40775;51.448;4.742;2022-08-21T04:08:16;101508.09;;;25.96;61.21
54882;BME280;40775;51.448;4.742;2022-08-21T04:10:50;101507.16;;;25.97;61.30
54882;BME280;40775;51.448;4.742;2022-08-21T04:13:17;101510.72;;;25.97;61.19
54882;BME280;40775;51.448;4.742;2022-08-21T04:15:44;101509.84;;;25.97;61.38
54882;BME280;40775;51.448;4.742;2022-08-21T04:18:12;101517.03;;;25.96;61.33
54882;BME280;40775;51.448;4.742;2022-08-21T04:20:41;101513.41;;;25.97;61.00
54882;BME280;40775;51.448;4.742;2022-08-21T04:23:20;101515.22;;;25.97;61.06
54882;BME280;40775;51.448;4.742;2022-08-21T04:25:52;101517.97;;;25.95;61.35
54882;BME280;40775;51.448;4.742;2022-08-21T04:28:20;101520.66;;;25.95;61.10
54882;BME280;40775;51.448;4.742;2022-08-21T04:30:50;101513.53;;;25.94;61.24
54882;BME280;40775;51.448;4.742;2022-08-21T04:33:20;101517.97;;;25.95;60.94
54882;BME280;40775;51.448;4.742;2022-08-21T04:35:49;101518.03;;;25.94;61.19
54882;BME280;40775;51.448;4.742;2022-08-21T04:38:17;101519.84;;;25.93;61.06
54882;BME280;40775;51.448;4.742;2022-08-21T04:40:45;101512.69;;;25.92;61.08
54882;BME280;40775;51.448;4.742;2022-08-21T04:43:12;101523.47;;;25.92;61.15
54882;BME280;40775;51.448;4.742;2022-08-21T04:45:44;101521.69;;;25.91;61.18
54882;BME280;40775;51.448;4.742;2022-08-21T04:48:13;101521.69;;;25.91;61.34
54882;BME280;40775;51.448;4.742;2022-08-21T04:53:37;101528.84;;;25.92;61.20
54882;BME280;40775;51.448;4.742;2022-08-21T04:56:15;101516.31;;;25.91;61.18
54882;BME280;40775;51.448;4.742;2022-08-21T04:58:45;101521.75;;;25.90;61.05
54882;BME280;40775;51.448;4.742;2022-08-21T05:01:19;101522.63;;;25.90;61.21
54882;BME280;40775;51.448;4.742;2022-08-21T05:03:50;101519.94;;;25.90;61.25
54882;BME280;40775;51.448;4.742;2022-08-21T05:06:19;101518.19;;;25.89;60.96
54882;BME280;40775;51.448;4.742;2022-08-21T05:08:49;101525.31;;;25.90;61.12
54882;BME280;40775;51.448;4.742;2022-08-21T05:11:29;101528.94;;;25.89;61.21
54882;BME280;40775;51.448;4.742;2022-08-21T05:13:57;101531.63;;;25.89;61.08
54882;BME280;40775;51.448;4.742;2022-08-21T05:16:24;101527.19;;;25.88;61.04
54882;BME280;40775;51.448;4.742;2022-08-21T05:19:04;101537.94;;;25.88;60.98
54882;BME280;40775;51.448;4.742;2022-08-21T05:21:37;101546.91;;;25.88;61.12
54882;BME280;40775;51.448;4.742;2022-08-21T05:24:04;101539.75;;;25.87;60.89
54882;BME280;40775;51.448;4.742;2022-08-21T05:26:32;101543.31;;;25.88;61.02
54882;BME280;40775;51.448;4.742;2022-08-21T05:29:11;101549.59;;;25.88;60.86
54882;BME280;40775;51.448;4.742;2022-08-21T05:31:38;101545.09;;;25.89;60.92
54882;BME280;40775;51.448;4.742;2022-08-21T05:34:05;101545.13;;;25.87;60.96
54882;BME280;40775;51.448;4.742;2022-08-21T05:36:33;101558.53;;;25.89;60.92
54882;BME280;40775;51.448;4.742;2022-08-21T05:39:00;101550.47;;;25.89;61.13
54882;BME280;40775;51.448;4.742;2022-08-21T05:41:27;101553.22;;;25.87;61.11
54882;BME280;40775;51.448;4.742;2022-08-21T05:43:54;101554.09;;;25.88;61.07
54882;BME280;40775;51.448;4.742;2022-08-21T05:46:21;101551.41;;;25.88;61.00
54882;BME280;40775;51.448;4.742;2022-08-21T05:48:48;101545.13;;;25.87;61.00
54882;BME280;40775;51.448;4.742;2022-08-21T05:51:16;101546.00;;;25.88;60.98
54882;BME280;40775;51.448;4.742;2022-08-21T05:53:44;101548.72;;;25.88;61.00
54882;BME280;40775;51.448;4.742;2022-08-21T05:56:13;101549.63;;;25.87;61.07
54882;BME280;40775;51.448;4.742;2022-08-21T05:58:40;101548.72;;;25.88;61.31
54882;BME280;40775;51.448;4.742;2022-08-21T06:01:08;101553.22;;;25.87;61.08
54882;BME280;40775;51.448;4.742;2022-08-21T06:03:39;101542.44;;;25.87;61.17
54882;BME280;40775;51.448;4.742;2022-08-21T06:06:07;101546.84;;;25.90;61.10
54882;BME280;40775;51.448;4.742;2022-08-21T06:08:34;101547.81;;;25.87;61.26
54882;BME280;40775;51.448;4.742;2022-08-21T06:11:04;101547.81;;;25.87;60.90
54882;BME280;40775;51.448;4.742;2022-08-21T06:13:32;101546.06;;;25.86;61.01
54882;BME280;40775;51.448;4.742;2022-08-21T06:16:10;101545.13;;;25.87;61.07
54882;BME280;40775;51.448;4.742;2022-08-21T06:18:43;101545.13;;;25.87;61.21
54882;BME280;40775;51.448;4.742;2022-08-21T06:21:10;101554.97;;;25.88;60.92
54882;BME280;40775;51.448;4.742;2022-08-21T06:23:38;101554.09;;;25.88;61.15
54882;BME280;40775;51.448;4.742;2022-08-21T06:26:07;101556.81;;;25.86;60.96
54882;BME280;40775;51.448;4.742;2022-08-21T06:28:35;101561.28;;;25.87;61.28
54882;BME280;40775;51.448;4.742;2022-08-21T06:31:17;101558.59;;;25.87;61.12
54882;BME280;40775;51.448;4.742;2022-08-21T06:33:45;101563.09;;;25.87;61.12
54882;BME280;40775;51.448;4.742;2022-08-21T06:36:12;101557.72;;;25.87;61.24
54882;BME280;40775;51.448;4.742;2022-08-21T06:38:40;101563.97;;;25.87;60.99
54882;BME280;40775;51.448;4.742;2022-08-21T06:41:08;101549.63;;;25.87;61.05
54882;BME280;40775;51.448;4.742;2022-08-21T06:43:36;101557.66;;;25.88;61.04
54882;BME280;40775;51.448;4.742;2022-08-21T06:46:07;101554.03;;;25.90;60.95
54882;BME280;40775;51.448;4.742;2022-08-21T06:48:34;101554.97;;;25.88;61.04
54882;BME280;40775;51.448;4.742;2022-08-21T06:51:01;101550.50;;;25.87;61.04
54882;BME280;40775;51.448;4.742;2022-08-21T06:53:29;101549.59;;;25.88;60.82
54882;BME280;40775;51.448;4.742;2022-08-21T06:55:56;101552.28;;;25.88;60.93
54882;BME280;40775;51.448;4.742;2022-08-21T06:58:23;101553.16;;;25.89;60.66
54882;BME280;40775;51.448;4.742;2022-08-21T07:00:51;101550.47;;;25.89;61.11
54882;BME280;40775;51.448;4.742;2022-08-21T07:03:32;101555.84;;;25.89;60.91
54882;BME280;40775;51.448;4.742;2022-08-21T07:05:59;101546.91;;;25.88;60.95
54882;BME280;40775;51.448;4.742;2022-08-21T07:08:27;101545.09;;;25.89;60.95
54882;BME280;40775;51.448;4.742;2022-08-21T07:10:57;101546.84;;;25.90;60.78
54882;BME280;40775;51.448;4.742;2022-08-21T07:13:24;101551.28;;;25.91;60.78
54882;BME280;40775;51.448;4.742;2022-08-21T07:15:52;101557.66;;;25.88;60.86
54882;BME280;40775;51.448;4.742;2022-08-21T07:18:19;101552.31;;;25.87;60.82
54882;BME280;40775;51.448;4.742;2022-08-21T07:20:47;101554.09;;;25.88;60.81
54882;BME280;40775;51.448;4.742;2022-08-21T07:23:29;101556.72;;;25.90;60.77
54882;BME280;40775;51.448;4.742;2022-08-21T07:25:58;101545.88;;;25.93;60.85
54882;BME280;40775;51.448;4.742;2022-08-21T07:28:30;101553.00;;;25.94;60.75
54882;BME280;40775;51.448;4.742;2022-08-21T07:31:00;101547.63;;;25.94;60.80
54882;BME280;40775;51.448;4.742;2022-08-21T07:33:30;101558.28;;;25.97;60.61
54882;BME280;40775;51.448;4.742;2022-08-21T07:35:58;101554.00;;;25.91;60.64
54882;BME280;40775;51.448;4.742;2022-08-21T07:38:25;101560.28;;;25.90;60.68
54882;BME280;40775;51.448;4.742;2022-08-21T07:40:56;101557.59;;;25.90;60.44
54882;BME280;40775;51.448;4.742;2022-08-21T07:43:26;101556.81;;;25.86;60.41
54882;BME280;40775;51.448;4.742;2022-08-21T07:45:53;101562.00;;;25.93;60.46
54882;BME280;40775;51.448;4.742;2022-08-21T07:48:22;101557.59;;;25.90;60.40
54882;BME280;40775;51.448;4.742;2022-08-21T07:50:49;101567.44;;;25.91;60.24
54882;BME280;40775;51.448;4.742;2022-08-21T07:53:17;101556.63;;;25.93;60.45
54882;BME280;40775;51.448;4.742;2022-08-21T07:55:44;101561.91;;;25.96;60.46
54882;BME280;40775;51.448;4.742;2022-08-21T07:58:11;101548.50;;;25.94;60.43
54882;BME280;40775;51.448;4.742;2022-08-21T08:00:39;101545.09;;;25.89;60.30
54882;BME280;40775;51.448;4.742;2022-08-21T08:03:06;101545.91;;;25.91;60.20
54882;BME280;40775;51.448;4.742;2022-08-21T08:05:33;101549.44;;;25.93;60.39
54882;BME280;40775;51.448;4.742;2022-08-21T08:08:03;101545.72;;;25.97;60.30
54882;BME280;40775;51.448;4.742;2022-08-21T08:10:31;101542.91;;;26.00;60.03
54882;BME280;40775;51.448;4.742;2022-08-21T08:12:58;101548.50;;;25.94;60.37
54882;BME280;40775;51.448;4.742;2022-08-21T08:15:27;101552.78;;;26.00;60.22
54882;BME280;40775;51.448;4.742;2022-08-21T08:17:56;101547.38;;;26.01;60.06
54882;BME280;40775;51.448;4.742;2022-08-21T08:20:25;101556.38;;;26.00;60.26
54882;BME280;40775;51.448;4.742;2022-08-21T08:22:54;101556.31;;;26.03;60.35
54882;BME280;40775;51.448;4.742;2022-08-21T08:25:22;101545.72;;;25.97;58.16
54882;BME280;40775;51.448;4.742;2022-08-21T08:27:49;101550.00;;;26.04;59.22
54882;BME280;40775;51.448;4.742;2022-08-21T08:30:18;101547.25;;;26.06;59.29
54882;BME280;40775;51.448;4.742;2022-08-21T08:32:47;101546.38;;;26.05;59.47
54882;BME280;40775;51.448;4.742;2022-08-21T08:35:14;101540.97;;;26.05;59.74
54882;BME280;40775;51.448;4.742;2022-08-21T08:37:42;101546.41;;;26.04;59.08
54882;BME280;40775;51.448;4.742;2022-08-21T08:41:01;101540.16;;;26.03;57.37
54882;BME280;40775;51.448;4.742;2022-08-21T08:43:32;101534.66;;;26.06;59.17
54882;BME280;40775;51.448;4.742;2022-08-21T08:46:05;101534.72;;;26.05;59.32
54882;BME280;40775;51.448;4.742;2022-08-21T08:52:28;101533.97;;;26.00;60.20
54882;BME280;40775;51.448;4.742;2022-08-21T08:55:20;101534.66;;;26.06;60.35
54882;BME280;40775;51.448;4.742;2022-08-21T08:57:53;101531.03;;;26.07;60.03
54882;BME280;40775;51.448;4.742;2022-08-21T09:00:23;101519.44;;;26.05;59.91
54882;BME280;40775;51.448;4.742;2022-08-21T09:02:56;101523.16;;;26.01;60.12
54882;BME280;40775;51.448;4.742;2022-08-21T09:05:43;101521.31;;;26.03;60.21
54882;BME280;40775;51.448;4.742;2022-08-21T09:12:08;101522.81;;;26.12;57.02
54882;BME280;40775;51.448;4.742;2022-08-21T09:21:49;101522.88;;;26.10;59.09
54882;BME280;40775;51.448;4.742;2022-08-21T09:24:33;101517.44;;;26.12;59.06
54882;BME280;40775;51.448;4.742;2022-08-21T09:27:15;101529.06;;;26.12;60.26
54882;BME280;40775;51.448;4.742;2022-08-21T09:29:47;101526.22;;;26.17;59.50
54882;BME280;40775;51.448;4.742;2022-08-21T09:32:19;101529.91;;;26.14;54.78
54882;BME280;40775;51.448;4.742;2022-08-21T09:35:17;101523.38;;;26.22;55.71
54882;BME280;40775;51.448;4.742;2022-08-21T09:45:41;101526.16;;;26.18;57.15
54882;BME280;40775;51.448;4.742;2022-08-21T09:48:23;101526.06;;;26.22;54.80
54882;BME280;40775;51.448;4.742;2022-08-21T09:50:53;101529.59;;;26.24;57.42
54882;BME280;40775;51.448;4.742;2022-08-21T09:53:32;101535.22;;;26.16;52.98
54882;BME280;40775;51.448;4.742;2022-08-21T10:01:52;101516.38;;;26.16;58.62
54882;BME280;40775;51.448;4.742;2022-08-21T10:04:35;101510.13;;;26.15;58.62
54882;BME280;40775;51.448;4.742;2022-08-21T10:07:12;101515.44;;;26.17;51.17
54882;BME280;40775;51.448;4.742;2022-08-21T10:09:41;101528.41;;;26.32;50.17
54882;BME280;40775;51.448;4.742;2022-08-21T10:15:17;101533.44;;;26.43;49.91
54882;BME280;40775;51.448;4.742;2022-08-21T10:21:30;101525.59;;;26.37;53.67
54882;BME280;40775;51.448;4.742;2022-08-21T10:24:36;101519.28;;;26.38;55.38
54882;BME280;40775;51.448;4.742;2022-08-21T10:27:30;101516.69;;;26.35;57.66
54882;BME280;40775;51.448;4.742;2022-08-21T10:33:32;101520.19;;;26.37;56.62
54882;BME280;40775;51.448;4.742;2022-08-21T10:36:19;101514.06;;;26.32;56.67
54882;BME280;40775;51.448;4.742;2022-08-21T10:39:18;101514.16;;;26.29;53.86
54882;BME280;40775;51.448;4.742;2022-08-21T10:47:34;101501.66;;;26.26;56.72
54882;BME280;40775;51.448;4.742;2022-08-21T10:56:13;101504.41;;;26.25;57.15
54882;BME280;40775;51.448;4.742;2022-08-21T11:01:59;101498.56;;;26.40;53.63
54882;BME280;40775;51.448;4.742;2022-08-21T11:07:38;101497.41;;;26.47;51.52
54882;BME280;40775;51.448;4.742;2022-08-21T11:11:12;101501.72;;;26.51;50.47
54882;BME280;40775;51.448;4.742;2022-08-21T11:13:39;101508.00;;;26.52;53.93
54882;BME280;40775;51.448;4.742;2022-08-21T11:16:33;101502.66;;;26.50;55.21
54882;BME280;40775;51.448;4.742;2022-08-21T11:25:21;101498.56;;;26.65;53.04
54882;BME280;40775;51.448;4.742;2022-08-21T11:28:31;101502.56;;;26.53;54.79
54882;BME280;40775;51.448;4.742;2022-08-21T11:31:09;101501.84;;;26.48;56.50
54882;BME280;40775;51.448;4.742;2022-08-21T11:36:30;101499.66;;;26.59;58.90
54882;BME280;40775;51.448;4.742;2022-08-21T11:47:45;101505.94;;;26.85;49.95
54882;BME280;40775;51.448;4.742;2022-08-21T11:50:27;101499.63;;;27.09;47.04
54882;BME280;40775;51.448;4.742;2022-08-21T11:53:12;101495.91;;;27.13;47.83
54882;BME280;40775;51.448;4.742;2022-08-21T11:56:07;101500.69;;;27.28;46.87
54882;BME280;40775;51.448;4.742;2022-08-21T11:58:45;101498.06;;;27.27;46.18
54882;BME280;40775;51.448;4.742;2022-08-21T12:01:25;101496.94;;;27.32;44.61
54882;BME280;40775;51.448;4.742;2022-08-21T12:04:26;101493.19;;;27.36;46.17
54882;BME280;40775;51.448;4.742;2022-08-21T12:06:55;101498.88;;;27.29;46.71
54882;BME280;40775;51.448;4.742;2022-08-21T12:12:21;101493.84;;;27.20;51.72
54882;BME280;40775;51.448;4.742;2022-08-21T12:14:51;101494.34;;;27.06;51.00
54882;BME280;40775;51.448;4.742;2022-08-21T12:17:38;101502.19;;;27.14;50.49
54882;BME280;40775;51.448;4.742;2022-08-21T12:23:24;101497.28;;;27.47;44.66
54882;BME280;40775;51.448;4.742;2022-08-21T12:26:37;101502.50;;;27.51;44.87
54882;BME280;40775;51.448;4.742;2022-08-21T12:29:32;101508.19;;;27.44;49.83
54882;BME280;40775;51.448;4.742;2022-08-21T12:35:25;101507.41;;;27.63;45.48
54882;BME280;40775;51.448;4.742;2022-08-21T12:38:18;101501.69;;;27.49;47.72
54882;BME280;40775;51.448;4.742;2022-08-21T12:40:52;101499.84;;;27.50;46.25
54882;BME280;40775;51.448;4.742;2022-08-21T12:43:40;101505.75;;;27.59;47.12
54882;BME280;40775;51.448;4.742;2022-08-21T12:46:20;101504.63;;;27.43;49.18
54882;BME280;40775;51.448;4.742;2022-08-21T12:49:39;101506.69;;;27.13;48.98
54882;BME280;40775;51.448;4.742;2022-08-21T12:52:40;101504.38;;;27.02;49.80
54882;BME280;40775;51.448;4.742;2022-08-21T12:55:13;101510.91;;;27.20;51.87
54882;BME280;40775;51.448;4.742;2022-08-21T12:57:42;101506.59;;;27.38;46.76
54882;BME280;40775;51.448;4.742;2022-08-21T13:00:12;101507.81;;;27.76;44.51
54882;BME280;40775;51.448;4.742;2022-08-21T13:02:48;101507.94;;;27.50;47.17
54882;BME280;40775;51.448;4.742;2022-08-21T13:05:32;101507.44;;;27.40;49.15
54882;BME280;40775;51.448;4.742;2022-08-21T13:08:07;101510.47;;;27.31;51.18
54882;BME280;40775;51.448;4.742;2022-08-21T13:10:36;101506.41;;;27.66;44.15
54882;BME280;40775;51.448;4.742;2022-08-21T13:13:09;101498.53;;;27.83;42.60
54882;BME280;40775;51.448;4.742;2022-08-21T13:15:41;101508.25;;;27.65;44.88
54882;BME280;40775;51.448;4.742;2022-08-21T13:18:27;101511.41;;;27.77;46.03
54882;BME280;40775;51.448;4.742;2022-08-21T13:21:26;101501.16;;;27.85;42.37
54882;BME280;40775;51.448;4.742;2022-08-21T13:23:54;101499.53;;;28.02;41.29
54882;BME280;40775;51.448;4.742;2022-08-21T13:26:21;101502.56;;;27.95;42.44
54882;BME280;40775;51.448;4.742;2022-08-21T13:28:50;101500.97;;;27.89;42.72
54882;BME280;40775;51.448;4.742;2022-08-21T13:31:25;101501.16;;;27.63;45.03
54882;BME280;40775;51.448;4.742;2022-08-21T13:33:54;101498.47;;;27.39;48.41
54882;BME280;40775;51.448;4.742;2022-08-21T13:36:31;101492.66;;;27.27;48.59
54882;BME280;40775;51.448;4.742;2022-08-21T13:38:59;101509.28;;;27.16;49.53
54882;BME280;40775;51.448;4.742;2022-08-21T13:41:33;101507.59;;;27.35;48.73
54882;BME280;40775;51.448;4.742;2022-08-21T13:44:17;101509.59;;;27.54;45.18
54882;BME280;40775;51.448;4.742;2022-08-21T13:46:48;101498.47;;;27.61;45.88
54882;BME280;40775;51.448;4.742;2022-08-21T13:49:26;101499.97;;;27.70;46.09
54882;BME280;40775;51.448;4.742;2022-08-21T13:51:55;101503.66;;;27.89;42.12
54882;BME280;40775;51.448;4.742;2022-08-21T13:54:43;101500.84;;;27.92;42.40
54882;BME280;40775;51.448;4.742;2022-08-21T13:57:32;101503.25;;;28.20;40.78
54882;BME280;40775;51.448;4.742;2022-08-21T14:00:28;101492.47;;;28.20;40.83
54882;BME280;40775;51.448;4.742;2022-08-21T14:03:09;101494.81;;;28.08;43.77
54882;BME280;40775;51.448;4.742;2022-08-21T14:05:45;101488.22;;;27.93;46.36
54882;BME280;40775;51.448;4.742;2022-08-21T14:10:56;101496.66;;;27.85;45.17
54882;BME280;40775;51.448;4.742;2022-08-21T14:16:29;101483.88;;;28.11;40.24
54882;BME280;40775;51.448;4.742;2022-08-21T14:19:19;101488.06;;;27.97;41.81
54882;BME280;40775;51.448;4.742;2022-08-21T14:21:47;101479.03;;;27.77;44.79
54882;BME280;40775;51.448;4.742;2022-08-21T14:27:04;101493.47;;;27.52;46.33
54882;BME280;40775;51.448;4.742;2022-08-21T14:29:39;101479.97;;;27.76;40.21
54882;BME280;40775;51.448;4.742;2022-08-21T14:32:21;101485.09;;;28.04;41.11
54882;BME280;40775;51.448;4.742;2022-08-21T14:34:52;101479.97;;;27.97;42.16
54882;BME280;40775;51.448;4.742;2022-08-21T14:37:21;101477.38;;;27.94;39.35
54882;BME280;40775;51.448;4.742;2022-08-21T14:39:48;101481.72;;;27.98;39.76
54882;BME280;40775;51.448;4.742;2022-08-21T14:42:15;101477.06;;;28.02;39.36
54882;BME280;40775;51.448;4.742;2022-08-21T14:44:43;101479.56;;;28.07;38.84
54882;BME280;40775;51.448;4.742;2022-08-21T14:47:10;101464.97;;;28.11;39.38
54882;BME280;40775;51.448;4.742;2022-08-21T14:49:37;101485.50;;;27.94;45.06
54882;BME280;40775;51.448;4.742;2022-08-21T14:52:04;101477.94;;;28.02;40.49
54882;BME280;40775;51.448;4.742;2022-08-21T14:54:32;101480.44;;;28.07;39.83
54882;BME280;40775;51.448;4.742;2022-08-21T14:57:05;101475.19;;;27.82;42.09